sensor_id;sensor_type;location;lat;lon;timestamp;pressure;altitude;pressure_sealevel;temperature;humidity
16834;BME280;8533;48.426;10.868;2022-12-07T00:01:41;96119.32;;;2.21;100.00
16834;BME280;8533;48.426;10.868;2022-12-07T00:04:12;96110.70;;;2.18;100.00
16834;BME280;8533;48.426;10.868;2022-12-07T00:06:41;96106.91;;;2.20;100.00
16834;BME280;8533;48.426;10.868;2022-12-07T00:09:14;96113.17;;;2.22;100.00
16834;BME280;8533;48.426;10.868;2022-12-07T00:11:43;96107.90;;;2.19;100.00
16834;BME280;8533;48.426;10.868;2022-12-07T00:14:13;96110.20;;;2.18;100.00
16834;BME280;8533;48.426;10.868;2022-12-07T00:16:41;96112.48;;;2.17;100.00
16834;BME280;8533;48.426;10.868;2022-12-07T00:19:11;96110.88;;;2.16;100.00
16834;BME280;8533;48.426;10.868;2022-12-07T00:21:39;96108.49;;;2.15;100.00
16834;BME280;8533;48.426;10.868;2022-12-07T00:24:07;96106.41;;;2.14;100.00
16834;BME280;8533;48.426;10.868;2022-12-07T00:26:38;96106.41;;;2.14;100.00
16834;BME280;8533;48.426;10.868;2022-12-07T00:29:17;96103.02;;;2.14;100.00
16834;BME280;8533;48.426;10.868;2022-12-07T00:31:37;96099.84;;;2.12;100.00
16834;BME280;8533;48.426;10.868;2022-12-07T00:34:06;96102.41;;;2.12;100.00
16834;BME280;8533;48.426;10.868;2022-12-07T00:36:33;96100.85;;;2.11;100.00
16834;BME280;8533;48.426;10.868;2022-12-07T00:39:01;96100.33;;;2.11;100.00
16834;BME280;8533;48.426;10.868;2022-12-07T00:41:29;96100.05;;;2.10;100.00
16834;BME280;8533;48.426;10.868;2022-12-07T00:43:57;96096.67;;;2.10;100.00
16834;BME280;8533;48.426;10.868;2022-12-07T00:46:25;96105.40;;;2.09;100.00
16834;BME280;8533;48.426;10.868;2022-12-07T00:48:53;96105.40;;;2.09;100.00
16834;BME280;8533;48.426;10.868;2022-12-07T00:51:23;96101.13;;;2.12;100.00
16834;BME280;8533;48.426;10.868;2022-12-07T00:53:51;96102.72;;;2.13;100.00
16834;BME280;8533;48.426;10.868;2022-12-07T00:56:22;96096.98;;;2.11;100.00
16834;BME280;8533;48.426;10.868;2022-12-07T00:58:59;96097.75;;;2.11;100.00
16834;BME280;8533;48.426;10.868;2022-12-07T01:01:24;96099.56;;;2.11;100.00
16834;BME280;8533;48.426;10.868;2022-12-07T01:03:53;96095.69;;;2.11;100.00
16834;BME280;8533;48.426;10.868;2022-12-07T01:06:21;96094.98;;;2.13;100.00
16834;BME280;8533;48.426;10.868;2022-12-07T01:08:50;96097.07;;;2.13;100.00
16834;BME280;8533;48.426;10.868;2022-12-07T01:11:20;96090.81;;;2.12;100.00
16834;BME280;8533;48.426;10.868;2022-12-07T01:13:55;96094.00;;;2.14;100.00
16834;BME280;8533;48.426;10.868;2022-12-07T01:16:20;96095.97;;;2.12;100.00
16834;BME280;8533;48.426;10.868;2022-12-07T01:18:50;96095.69;;;2.11;100.00
16834;BME280;8533;48.426;10.868;2022-12-07T01:21:23;96096.98;;;2.11;100.00
16834;BME280;8533;48.426;10.868;2022-12-07T01:23:51;96103.22;;;2.12;100.00
16834;BME280;8533;48.426;10.868;2022-12-07T01:26:22;96103.92;;;2.10;100.00
16834;BME280;8533;48.426;10.868;2022-12-07T01:28:49;96100.85;;;2.11;100.00
16834;BME280;8533;48.426;10.868;2022-12-07T01:31:19;96099.84;;;2.12;100.00
16834;BME280;8533;48.426;10.868;2022-12-07T01:33:50;96099.75;;;2.09;100.00
16834;BME280;8533;48.426;10.868;2022-12-07T01:36:25;96105.58;;;2.07;100.00
16834;BME280;8533;48.426;10.868;2022-12-07T01:38:54;96107.06;;;2.06;100.00
16834;BME280;8533;48.426;10.868;2022-12-07T01:41:23;96106.08;;;2.07;100.00
16834;BME280;8533;48.426;10.868;2022-12-07T01:44:16;96105.47;;;2.05;100.00
16834;BME280;8533;48.426;10.868;2022-12-07T01:46:49;96107.74;;;2.04;100.00
16834;BME280;8533;48.426;10.868;2022-12-07T01:52:01;96107.84;;;2.00;100.00
16834;BME280;8533;48.426;10.868;2022-12-07T01:54:25;96099.42;;;2.02;100.00
16834;BME280;8533;48.426;10.868;2022-12-07T01:56:54;96096.23;;;2.00;100.00
16834;BME280;8533;48.426;10.868;2022-12-07T01:59:24;96092.43;;;1.96;100.00
16834;BME280;8533;48.426;10.868;2022-12-07T02:01:54;96095.01;;;1.96;100.00
16834;BME280;8533;48.426;10.868;2022-12-07T02:04:22;96097.40;;;1.97;100.00
16834;BME280;8533;48.426;10.868;2022-12-07T02:06:50;96095.01;;;1.96;100.00
16834;BME280;8533;48.426;10.868;2022-12-07T02:09:18;96095.22;;;1.94;100.00
16834;BME280;8533;48.426;10.868;2022-12-07T02:11:46;96099.18;;;1.97;100.00
16834;BME280;8533;48.426;10.868;2022-12-07T02:14:13;96103.05;;;1.97;100.00
16834;BME280;8533;48.426;10.868;2022-12-07T02:17:03;96099.67;;;1.96;100.00
16834;BME280;8533;48.426;10.868;2022-12-07T02:19:45;96087.00;;;1.95;100.00
16834;BME280;8533;48.426;10.868;2022-12-07T02:27:50;96097.07;;;1.89;100.00
16834;BME280;8533;48.426;10.868;2022-12-07T02:30:19;96093.02;;;1.91;100.00
16834;BME280;8533;48.426;10.868;2022-12-07T02:32:54;96096.27;;;1.89;100.00
16834;BME280;8533;48.426;10.868;2022-12-07T02:40:41;96090.72;;;1.85;100.00
16834;BME280;8533;48.426;10.868;2022-12-07T02:43:23;96084.95;;;1.83;100.00
16834;BME280;8533;48.426;10.868;2022-12-07T02:45:50;96088.02;;;1.83;100.00
16834;BME280;8533;48.426;10.868;2022-12-07T02:48:20;96081.70;;;1.85;100.00
16834;BME280;8533;48.426;10.868;2022-12-07T02:50:52;96078.32;;;1.85;100.00
16834;BME280;8533;48.426;10.868;2022-12-07T02:53:37;96077.52;;;1.84;100.00
16834;BME280;8533;48.426;10.868;2022-12-07T02:56:20;96070.16;;;1.81;100.00
16834;BME280;8533;48.426;10.868;2022-12-07T03:01:49;96077.89;;;1.81;100.00
16834;BME280;8533;48.426;10.868;2022-12-07T03:04:18;96075.13;;;1.83;100.00
16834;BME280;8533;48.426;10.868;2022-12-07T03:06:49;96069.48;;;1.83;100.00
16834;BME280;8533;48.426;10.868;2022-12-07T03:09:25;96076.91;;;1.82;100.00
16834;BME280;8533;48.426;10.868;2022-12-07T03:11:54;96077.89;;;1.81;100.00
16834;BME280;8533;48.426;10.868;2022-12-07T03:14:29;96072.06;;;1.83;100.00
16834;BME280;8533;48.426;10.868;2022-12-07T03:16:55;96080.17;;;1.80;100.00
16834;BME280;8533;48.426;10.868;2022-12-07T03:19:23;96066.59;;;1.82;100.00
16834;BME280;8533;48.426;10.868;2022-12-07T03:22:05;96065.80;;;1.82;100.00
16834;BME280;8533;48.426;10.868;2022-12-07T03:24:37;96064.81;;;1.83;100.00
16834;BME280;8533;48.426;10.868;2022-12-07T03:30:01;96071.57;;;1.84;100.00
16834;BME280;8533;48.426;10.868;2022-12-07T03:32:45;96074.33;;;1.82;100.00
16834;BME280;8533;48.426;10.868;2022-12-07T03:35:24;96069.48;;;1.83;100.00
16834;BME280;8533;48.426;10.868;2022-12-07T03:37:58;96073.47;;;1.86;100.00
16834;BME280;8533;48.426;10.868;2022-12-07T03:40:34;96073.86;;;1.89;100.00
16834;BME280;8533;48.426;10.868;2022-12-07T03:43:01;96068.89;;;1.88;100.00
16834;BME280;8533;48.426;10.868;2022-12-07T03:45:41;96070.40;;;1.86;100.00
16834;BME280;8533;48.426;10.868;2022-12-07T03:48:07;96065.45;;;1.91;100.00
16834;BME280;8533;48.426;10.868;2022-12-07T03:50:49;96069.63;;;1.93;100.00
16834;BME280;8533;48.426;10.868;2022-12-07T03:53:20;96072.02;;;1.94;100.00
16834;BME280;8533;48.426;10.868;2022-12-07T03:55:49;96068.14;;;1.94;100.00
16834;BME280;8533;48.426;10.868;2022-12-07T03:58:19;96069.92;;;1.94;100.00
16834;BME280;8533;48.426;10.868;2022-12-07T04:00:49;96077.05;;;1.91;100.00
16834;BME280;8533;48.426;10.868;2022-12-07T04:03:17;96079.63;;;1.91;100.00
16834;BME280;8533;48.426;10.868;2022-12-07T04:05:44;96074.48;;;1.91;100.00
16834;BME280;8533;48.426;10.868;2022-12-07T04:08:12;96073.67;;;1.91;100.00
16834;BME280;8533;48.426;10.868;2022-12-07T04:10:40;96080.92;;;1.91;100.00
16834;BME280;8533;48.426;10.868;2022-12-07T04:13:07;96080.12;;;1.91;100.00
16834;BME280;8533;48.426;10.868;2022-12-07T04:15:34;96077.05;;;1.91;100.00
16834;BME280;8533;48.426;10.868;2022-12-07T04:18:02;96073.19;;;1.91;100.00
16834;BME280;8533;48.426;10.868;2022-12-07T04:20:29;96074.17;;;1.90;100.00
16834;BME280;8533;48.426;10.868;2022-12-07T04:22:57;96073.25;;;1.87;100.00
16834;BME280;8533;48.426;10.868;2022-12-07T04:25:24;96069.20;;;1.89;100.00
16834;BME280;8533;48.426;10.868;2022-12-07T04:27:51;96072.27;;;1.88;100.00
16834;BME280;8533;48.426;10.868;2022-12-07T04:30:20;96073.06;;;1.89;100.00
16834;BME280;8533;48.426;10.868;2022-12-07T04:32:47;96072.27;;;1.88;100.00
16834;BME280;8533;48.426;10.868;2022-12-07T04:35:14;96073.16;;;1.85;100.00
16834;BME280;8533;48.426;10.868;2022-12-07T04:37:42;96064.14;;;1.85;100.00
16834;BME280;8533;48.426;10.868;2022-12-07T04:40:10;96068.80;;;1.85;100.00
16834;BME280;8533;48.426;10.868;2022-12-07T04:42:38;96067.02;;;1.86;100.00
16834;BME280;8533;48.426;10.868;2022-12-07T04:45:06;96066.59;;;1.82;100.00
16834;BME280;8533;48.426;10.868;2022-12-07T04:47:34;96067.89;;;1.82;100.00
16834;BME280;8533;48.426;10.868;2022-12-07T04:50:02;96058.06;;;1.82;100.00
16834;BME280;8533;48.426;10.868;2022-12-07T04:52:29;96071.57;;;1.84;100.00
16834;BME280;8533;48.426;10.868;2022-12-07T04:54:57;96071.08;;;1.84;100.00
16834;BME280;8533;48.426;10.868;2022-12-07T04:57:24;96078.32;;;1.85;100.00
16834;BME280;8533;48.426;10.868;2022-12-07T04:59:52;96075.31;;;1.81;100.00
16834;BME280;8533;48.426;10.868;2022-12-07T05:02:19;96079.30;;;1.84;100.00
16834;BME280;8533;48.426;10.868;2022-12-07T05:04:47;96070.47;;;1.82;100.00
16834;BME280;8533;48.426;10.868;2022-12-07T05:07:14;96063.22;;;1.82;100.00
16834;BME280;8533;48.426;10.868;2022-12-07T05:09:41;96064.20;;;1.81;100.00
16834;BME280;8533;48.426;10.868;2022-12-07T05:12:09;96064.51;;;1.82;100.00
16834;BME280;8533;48.426;10.868;2022-12-07T05:14:36;96060.83;;;1.80;100.00
16834;BME280;8533;48.426;10.868;2022-12-07T05:17:04;96064.39;;;1.79;100.00
16834;BME280;8533;48.426;10.868;2022-12-07T05:19:31;96061.63;;;1.81;100.00
16834;BME280;8533;48.426;10.868;2022-12-07T05:21:58;96048.65;;;1.78;100.00
16834;BME280;8533;48.426;10.868;2022-12-07T05:24:26;96055.28;;;1.77;100.00
16834;BME280;8533;48.426;10.868;2022-12-07T05:26:53;96048.72;;;1.74;100.00
16834;BME280;8533;48.426;10.868;2022-12-07T05:29:21;96049.02;;;1.75;100.00
16834;BME280;8533;48.426;10.868;2022-12-07T05:31:48;96049.02;;;1.75;100.00
16834;BME280;8533;48.426;10.868;2022-12-07T05:34:15;96048.53;;;1.76;100.00
16834;BME280;8533;48.426;10.868;2022-12-07T05:36:43;96042.08;;;1.76;100.00
16834;BME280;8533;48.426;10.868;2022-12-07T05:39:11;96053.19;;;1.76;100.00
16834;BME280;8533;48.426;10.868;2022-12-07T05:41:40;96050.31;;;1.75;100.00
16834;BME280;8533;48.426;10.868;2022-12-07T05:44:25;96044.54;;;1.73;100.00
16834;BME280;8533;48.426;10.868;2022-12-07T05:46:53;96060.41;;;1.70;100.00
16834;BME280;8533;48.426;10.868;2022-12-07T05:49:20;96057.53;;;1.69;100.00
16834;BME280;8533;48.426;10.868;2022-12-07T05:51:48;96050.10;;;1.70;100.00
16834;BME280;8533;48.426;10.868;2022-12-07T05:54:15;96060.59;;;1.69;100.00
16834;BME280;8533;48.426;10.868;2022-12-07T05:56:43;96051.08;;;1.69;100.00
16834;BME280;8533;48.426;10.868;2022-12-07T05:59:10;96055.32;;;1.66;100.00
16834;BME280;8533;48.426;10.868;2022-12-07T06:01:54;96063.84;;;1.67;100.00
16834;BME280;8533;48.426;10.868;2022-12-07T06:04:19;96068.58;;;1.63;100.00
16834;BME280;8533;48.426;10.868;2022-12-07T06:06:46;96062.23;;;1.59;100.00
16834;BME280;8533;48.426;10.868;2022-12-07T06:09:14;96070.45;;;1.59;100.00
16834;BME280;8533;48.426;10.868;2022-12-07T06:11:42;96069.16;;;1.59;100.00
16834;BME280;8533;48.426;10.868;2022-12-07T06:14:27;96068.06;;;1.57;100.00
16834;BME280;8533;48.426;10.868;2022-12-07T06:16:54;96063.58;;;1.55;100.00
16834;BME280;8533;48.426;10.868;2022-12-07T06:19:22;96061.31;;;1.56;100.00
16834;BME280;8533;48.426;10.868;2022-12-07T06:21:49;96062.29;;;1.55;100.00
16834;BME280;8533;48.426;10.868;2022-12-07T06:24:17;96061.89;;;1.51;100.00
16834;BME280;8533;48.426;10.868;2022-12-07T06:26:45;96062.56;;;1.49;100.00
16834;BME280;8533;48.426;10.868;2022-12-07T06:29:13;96063.15;;;1.45;100.00
16834;BME280;8533;48.426;10.868;2022-12-07T06:31:41;96064.80;;;1.42;100.00
16834;BME280;8533;48.426;10.868;2022-12-07T06:34:14;96065.78;;;1.41;100.00
16834;BME280;8533;48.426;10.868;2022-12-07T06:36:41;96070.72;;;1.36;100.00
16834;BME280;8533;48.426;10.868;2022-12-07T06:39:09;96070.11;;;1.34;100.00
16834;BME280;8533;48.426;10.868;2022-12-07T06:41:38;96069.67;;;1.30;100.00
16834;BME280;8533;48.426;10.868;2022-12-07T06:44:06;96070.87;;;1.28;100.00
16834;BME280;8533;48.426;10.868;2022-12-07T06:46:34;96070.25;;;1.26;100.00
16834;BME280;8533;48.426;10.868;2022-12-07T06:49:05;96066.35;;;1.19;100.00
16834;BME280;8533;48.426;10.868;2022-12-07T06:51:33;96067.52;;;1.17;100.00
16834;BME280;8533;48.426;10.868;2022-12-07T06:54:03;96066.62;;;1.13;100.00
16834;BME280;8533;48.426;10.868;2022-12-07T06:56:30;96066.67;;;1.09;100.00
16834;BME280;8533;48.426;10.868;2022-12-07T06:58:58;96054.47;;;1.07;100.00
16834;BME280;8533;48.426;10.868;2022-12-07T07:01:25;96059.31;;;1.06;100.00
16834;BME280;8533;48.426;10.868;2022-12-07T07:03:53;96060.69;;;1.02;100.00
16834;BME280;8533;48.426;10.868;2022-12-07T07:06:20;96062.83;;;0.99;100.00
16834;BME280;8533;48.426;10.868;2022-12-07T07:08:48;96070.45;;;0.96;100.00
16834;BME280;8533;48.426;10.868;2022-12-07T07:11:15;96065.17;;;0.94;100.00
16834;BME280;8533;48.426;10.868;2022-12-07T07:13:44;96067.56;;;0.95;100.00
16834;BME280;8533;48.426;10.868;2022-12-07T07:16:11;96065.48;;;0.95;100.00
16834;BME280;8533;48.426;10.868;2022-12-07T07:18:39;96066.28;;;0.95;100.00
16834;BME280;8533;48.426;10.868;2022-12-07T07:21:06;96064.06;;;0.92;100.00
16834;BME280;8533;48.426;10.868;2022-12-07T07:23:34;96062.11;;;0.94;100.00
16834;BME280;8533;48.426;10.868;2022-12-07T07:26:01;96060.52;;;0.93;100.00
16834;BME280;8533;48.426;10.868;2022-12-07T07:28:29;96063.58;;;0.93;100.00
16834;BME280;8533;48.426;10.868;2022-12-07T07:30:56;96068.23;;;0.93;100.00
16834;BME280;8533;48.426;10.868;2022-12-07T07:33:24;96076.45;;;0.93;100.00
16834;BME280;8533;48.426;10.868;2022-12-07T07:35:51;96077.61;;;0.90;100.00
16834;BME280;8533;48.426;10.868;2022-12-07T07:38:18;96078.23;;;0.92;100.00
16834;BME280;8533;48.426;10.868;2022-12-07T07:40:46;96075.52;;;0.90;100.00
16834;BME280;8533;48.426;10.868;2022-12-07T07:43:14;96075.11;;;0.86;100.00
16834;BME280;8533;48.426;10.868;2022-12-07T07:45:41;96080.63;;;0.83;100.00
16834;BME280;8533;48.426;10.868;2022-12-07T07:48:09;96086.65;;;0.80;100.00
16834;BME280;8533;48.426;10.868;2022-12-07T07:50:36;96081.81;;;0.81;100.00
16834;BME280;8533;48.426;10.868;2022-12-07T07:53:04;96084.08;;;0.80;100.00
16834;BME280;8533;48.426;10.868;2022-12-07T07:55:31;96080.39;;;0.78;100.00
16834;BME280;8533;48.426;10.868;2022-12-07T07:57:58;96078.31;;;0.78;100.00
16834;BME280;8533;48.426;10.868;2022-12-07T08:00:26;96080.27;;;0.75;100.00
16834;BME280;8533;48.426;10.868;2022-12-07T08:02:53;96075.91;;;0.76;100.00
16834;BME280;8533;48.426;10.868;2022-12-07T08:05:21;96074.14;;;0.76;100.00
16834;BME280;8533;48.426;10.868;2022-12-07T08:07:49;96072.18;;;0.79;100.00
16834;BME280;8533;48.426;10.868;2022-12-07T08:10:16;96082.89;;;0.82;100.00
16834;BME280;8533;48.426;10.868;2022-12-07T08:12:44;96098.82;;;0.82;100.00
16834;BME280;8533;48.426;10.868;2022-12-07T08:15:30;96104.85;;;0.89;100.00
16834;BME280;8533;48.426;10.868;2022-12-07T08:17:58;96102.19;;;0.93;100.00
16834;BME280;8533;48.426;10.868;2022-12-07T08:20:26;96104.59;;;0.94;100.00
16834;BME280;8533;48.426;10.868;2022-12-07T08:22:53;96110.45;;;0.99;100.00
16834;BME280;8533;48.426;10.868;2022-12-07T08:25:20;96114.58;;;1.04;100.00
16834;BME280;8533;48.426;10.868;2022-12-07T08:27:51;96113.20;;;1.08;100.00
16834;BME280;8533;48.426;10.868;2022-12-07T08:30:19;96106.23;;;1.12;100.00
16834;BME280;8533;48.426;10.868;2022-12-07T08:32:47;96106.81;;;1.14;100.00
16834;BME280;8533;48.426;10.868;2022-12-07T08:35:15;96118.17;;;1.20;100.00
16834;BME280;8533;48.426;10.868;2022-12-07T08:37:42;96116.48;;;1.23;100.00
16834;BME280;8533;48.426;10.868;2022-12-07T08:40:11;96119.50;;;1.27;100.00
16834;BME280;8533;48.426;10.868;2022-12-07T08:42:42;96114.58;;;1.32;100.00
16834;BME280;8533;48.426;10.868;2022-12-07T08:45:12;96108.97;;;1.39;100.00
16834;BME280;8533;48.426;10.868;2022-12-07T08:47:55;96106.95;;;1.45;100.00
16834;BME280;8533;48.426;10.868;2022-12-07T08:50:14;96103.73;;;1.53;100.00
16834;BME280;8533;48.426;10.868;2022-12-07T08:52:42;96111.11;;;1.63;100.00
16834;BME280;8533;48.426;10.868;2022-12-07T08:55:11;96111.66;;;1.69;100.00
16834;BME280;8533;48.426;10.868;2022-12-07T08:57:39;96110.52;;;1.78;100.00
16834;BME280;8533;48.426;10.868;2022-12-07T09:00:07;96112.55;;;1.89;100.00
16834;BME280;8533;48.426;10.868;2022-12-07T09:02:35;96118.36;;;2.05;100.00
16834;BME280;8533;48.426;10.868;2022-12-07T09:05:03;96119.63;;;2.22;100.00
16834;BME280;8533;48.426;10.868;2022-12-07T09:07:32;96116.40;;;2.37;100.00
16834;BME280;8533;48.426;10.868;2022-12-07T09:10:01;96124.11;;;2.61;100.00
16834;BME280;8533;48.426;10.868;2022-12-07T09:12:28;96115.92;;;2.81;100.00
16834;BME280;8533;48.426;10.868;2022-12-07T09:14:56;96111.66;;;3.04;100.00
16834;BME280;8533;48.426;10.868;2022-12-07T09:17:23;96105.41;;;3.22;100.00
16834;BME280;8533;48.426;10.868;2022-12-07T09:19:51;96111.16;;;3.37;100.00
16834;BME280;8533;48.426;10.868;2022-12-07T09:22:18;96106.69;;;3.49;100.00
16834;BME280;8533;48.426;10.868;2022-12-07T09:24:46;96111.33;;;3.62;100.00
16834;BME280;8533;48.426;10.868;2022-12-07T09:27:13;96101.74;;;3.76;100.00
16834;BME280;8533;48.426;10.868;2022-12-07T09:29:41;96109.36;;;3.93;100.00
16834;BME280;8533;48.426;10.868;2022-12-07T09:32:09;96113.05;;;3.95;100.00
16834;BME280;8533;48.426;10.868;2022-12-07T09:34:36;96111.56;;;3.83;98.49
16834;BME280;8533;48.426;10.868;2022-12-07T09:37:04;96109.53;;;3.98;96.37
16834;BME280;8533;48.426;10.868;2022-12-07T09:39:32;96103.28;;;3.90;92.36
16834;BME280;8533;48.426;10.868;2022-12-07T09:42:02;96102.69;;;3.95;89.35
16834;BME280;8533;48.426;10.868;2022-12-07T09:44:30;96095.62;;;3.93;87.74
16834;BME280;8533;48.426;10.868;2022-12-07T09:46:58;96100.30;;;3.93;87.33
16834;BME280;8533;48.426;10.868;2022-12-07T09:49:31;96090.72;;;4.00;86.70
16834;BME280;8533;48.426;10.868;2022-12-07T09:52:16;96090.13;;;3.98;87.26
16834;BME280;8533;48.426;10.868;2022-12-07T09:54:35;96086.73;;;4.04;86.87
16834;BME280;8533;48.426;10.868;2022-12-07T09:57:02;96083.16;;;4.05;83.94
16834;BME280;8533;48.426;10.868;2022-12-07T09:59:30;96080.80;;;3.97;82.51
16834;BME280;8533;48.426;10.868;2022-12-07T10:02:02;96079.44;;;4.10;83.63
16834;BME280;8533;48.426;10.868;2022-12-07T10:04:28;96082.36;;;3.98;82.16
16834;BME280;8533;48.426;10.868;2022-12-07T10:06:55;96080.53;;;3.83;84.10
16834;BME280;8533;48.426;10.868;2022-12-07T10:09:23;96076.29;;;4.02;84.33
16834;BME280;8533;48.426;10.868;2022-12-07T10:12:06;96072.61;;;4.00;85.02
16834;BME280;8533;48.426;10.868;2022-12-07T10:14:38;96075.09;;;4.04;81.39
16834;BME280;8533;48.426;10.868;2022-12-07T10:17:27;96073.67;;;4.08;81.69
16834;BME280;8533;48.426;10.868;2022-12-07T10:19:42;96069.26;;;4.15;81.95
16834;BME280;8533;48.426;10.868;2022-12-07T10:22:12;96074.44;;;4.15;82.90
16834;BME280;8533;48.426;10.868;2022-12-07T10:24:42;96063.52;;;4.13;82.35
16834;BME280;8533;48.426;10.868;2022-12-07T10:27:29;96065.45;;;4.02;82.09
16834;BME280;8533;48.426;10.868;2022-12-07T10:29:55;96069.16;;;3.97;82.59
16834;BME280;8533;48.426;10.868;2022-12-07T10:32:34;96066.23;;;4.03;83.41
16834;BME280;8533;48.426;10.868;2022-12-07T10:35:44;96068.00;;;4.09;82.82
16834;BME280;8533;48.426;10.868;2022-12-07T10:37:39;96064.02;;;4.06;84.48
16834;BME280;8533;48.426;10.868;2022-12-07T10:40:18;96067.27;;;4.17;84.34
16834;BME280;8533;48.426;10.868;2022-12-07T10:42:34;96053.83;;;4.18;84.18
16834;BME280;8533;48.426;10.868;2022-12-07T10:45:15;96053.68;;;4.29;82.63
16834;BME280;8533;48.426;10.868;2022-12-07T10:58:27;96059.67;;;4.00;84.16
16834;BME280;8533;48.426;10.868;2022-12-07T11:01:16;96056.75;;;4.12;84.24
16834;BME280;8533;48.426;10.868;2022-12-07T11:06:09;96048.42;;;4.04;86.58
16834;BME280;8533;48.426;10.868;2022-12-07T11:08:48;96047.30;;;4.09;85.64
16834;BME280;8533;48.426;10.868;2022-12-07T11:11:20;96046.80;;;4.09;82.80
16834;BME280;8533;48.426;10.868;2022-12-07T11:14:01;96044.41;;;4.08;83.54
16834;BME280;8533;48.426;10.868;2022-12-07T11:21:55;96033.13;;;3.96;82.45
16834;BME280;8533;48.426;10.868;2022-12-07T11:24:57;96032.34;;;3.95;81.85
16834;BME280;8533;48.426;10.868;2022-12-07T11:27:07;96029.05;;;3.97;82.33
16834;BME280;8533;48.426;10.868;2022-12-07T11:35:31;96025.39;;;4.11;82.15
16834;BME280;8533;48.426;10.868;2022-12-07T11:37:55;96017.69;;;4.20;82.51
16834;BME280;8533;48.426;10.868;2022-12-07T11:40:25;96015.21;;;4.32;82.82
16834;BME280;8533;48.426;10.868;2022-12-07T11:42:59;96014.12;;;4.31;81.90
16834;BME280;8533;48.426;10.868;2022-12-07T11:45:31;96009.53;;;4.33;80.14
16834;BME280;8533;48.426;10.868;2022-12-07T11:50:56;96011.78;;;4.38;78.52
16834;BME280;8533;48.426;10.868;2022-12-07T11:53:35;96007.98;;;4.41;78.63
16834;BME280;8533;48.426;10.868;2022-12-07T11:56:07;96001.36;;;4.36;76.69
16834;BME280;8533;48.426;10.868;2022-12-07T12:04:32;95989.75;;;4.45;75.11
16834;BME280;8533;48.426;10.868;2022-12-07T12:06:59;95993.05;;;4.43;75.31
16834;BME280;8533;48.426;10.868;2022-12-07T12:09:33;95994.93;;;4.45;75.10
16834;BME280;8533;48.426;10.868;2022-12-07T12:12:20;95995.38;;;4.51;74.39
16834;BME280;8533;48.426;10.868;2022-12-07T12:20:29;95982.58;;;4.56;76.04
16834;BME280;8533;48.426;10.868;2022-12-07T12:23:12;95982.59;;;4.40;75.67
16834;BME280;8533;48.426;10.868;2022-12-07T12:25:42;95987.22;;;4.47;74.62
16834;BME280;8533;48.426;10.868;2022-12-07T12:28:24;95979.69;;;4.46;74.06
16834;BME280;8533;48.426;10.868;2022-12-07T12:33:47;95972.45;;;4.23;74.91
16834;BME280;8533;48.426;10.868;2022-12-07T12:36:17;95977.02;;;4.28;75.94
16834;BME280;8533;48.426;10.868;2022-12-07T12:46:55;95976.97;;;4.18;75.13
16834;BME280;8533;48.426;10.868;2022-12-07T12:57:32;95974.78;;;4.00;76.29
16834;BME280;8533;48.426;10.868;2022-12-07T13:00:01;95972.29;;;4.02;75.81
16834;BME280;8533;48.426;10.868;2022-12-07T13:15:42;95955.07;;;3.83;78.55
16834;BME280;8533;48.426;10.868;2022-12-07T13:18:52;95951.14;;;3.90;78.79
16834;BME280;8533;48.426;10.868;2022-12-07T13:20:46;95944.12;;;3.88;78.30
16834;BME280;8533;48.426;10.868;2022-12-07T13:23:20;95942.89;;;3.90;79.19
16834;BME280;8533;48.426;10.868;2022-12-07T13:26:36;95941.33;;;3.89;78.92
16834;BME280;8533;48.426;10.868;2022-12-07T13:28:41;95945.27;;;3.92;78.92
16834;BME280;8533;48.426;10.868;2022-12-07T13:31:33;95943.62;;;3.88;78.29
16834;BME280;8533;48.426;10.868;2022-12-07T13:34:05;95934.06;;;3.89;78.36
16834;BME280;8533;48.426;10.868;2022-12-07T13:36:43;95931.18;;;3.88;78.52
16834;BME280;8533;48.426;10.868;2022-12-07T13:39:22;95934.52;;;3.79;80.48
16834;BME280;8533;48.426;10.868;2022-12-07T13:41:52;95928.64;;;3.81;79.59
16834;BME280;8533;48.426;10.868;2022-12-07T13:44:21;95933.81;;;3.81;80.26
16834;BME280;8533;48.426;10.868;2022-12-07T13:52:20;95921.08;;;3.79;79.71
16834;BME280;8533;48.426;10.868;2022-12-07T13:57:19;95920.58;;;3.80;79.89
16834;BME280;8533;48.426;10.868;2022-12-07T13:59:46;95926.56;;;3.74;80.29
16834;BME280;8533;48.426;10.868;2022-12-07T14:02:28;95931.03;;;3.76;80.29
16834;BME280;8533;48.426;10.868;2022-12-07T14:05:12;95932.83;;;3.75;79.83
16834;BME280;8533;48.426;10.868;2022-12-07T14:07:58;95926.45;;;3.78;80.97
16834;BME280;8533;48.426;10.868;2022-12-07T14:10:33;95930.83;;;3.77;80.71
16834;BME280;8533;48.426;10.868;2022-12-07T14:13:02;95920.39;;;3.75;81.26
16834;BME280;8533;48.426;10.868;2022-12-07T14:15:32;95925.00;;;3.73;81.25
16834;BME280;8533;48.426;10.868;2022-12-07T14:18:02;95927.86;;;3.74;81.41
16834;BME280;8533;48.426;10.868;2022-12-07T14:23:03;95922.36;;;3.64;81.92
16834;BME280;8533;48.426;10.868;2022-12-07T14:25:46;95925.94;;;3.63;81.00
16834;BME280;8533;48.426;10.868;2022-12-07T14:28:32;95924.15;;;3.63;81.32
16834;BME280;8533;48.426;10.868;2022-12-07T14:30:57;95931.61;;;3.62;81.70
16834;BME280;8533;48.426;10.868;2022-12-07T14:33:25;95920.97;;;3.61;82.36
16834;BME280;8533;48.426;10.868;2022-12-07T14:35:53;95922.27;;;3.61;81.60
16834;BME280;8533;48.426;10.868;2022-12-07T14:38:22;95918.09;;;3.60;82.04
16834;BME280;8533;48.426;10.868;2022-12-07T14:40:52;95918.28;;;3.59;83.10
16834;BME280;8533;48.426;10.868;2022-12-07T14:43:20;95917.13;;;3.55;82.29
16834;BME280;8533;48.426;10.868;2022-12-07T14:45:47;95918.82;;;3.52;81.71
16834;BME280;8533;48.426;10.868;2022-12-07T14:48:16;95922.40;;;3.51;81.94
16834;BME280;8533;48.426;10.868;2022-12-07T14:50:51;95918.33;;;3.52;82.25
16834;BME280;8533;48.426;10.868;2022-12-07T14:53:19;95918.52;;;3.51;82.32
16834;BME280;8533;48.426;10.868;2022-12-07T14:55:47;95915.08;;;3.48;82.40
16834;BME280;8533;48.426;10.868;2022-12-07T14:58:16;95911.99;;;3.48;82.96
16834;BME280;8533;48.426;10.868;2022-12-07T15:00:44;95908.52;;;3.45;83.20